Terminal Aerodrome Forecast
Issued by NWS

Home | Current Version | Previous Version | Text Only | Print | Product List | Glossary Off
Versions: 1 2 3 4 5 6 7 8 9 10 11 12

000
FTUS45 KGGW 182327
TAFOLF
TAF
KOLF 182327Z 1900/1924 22007KT P6SM FEW220
     FM190200 13005KT P6SM FEW220
     FM191100 26006KT P6SM SCT190
     FM191400 28010KT P6SM SCT180
     FM191600 29014G24KT P6SM FEW160=

USA.gov is the U.S. government's official web portal to all federal, state and local government web resources and services.